Time;durP1;ratioP1;P1;durP2;ratioP2;P2;SDS_P1;SDS_P2;PMS_P1;PMS_P2;Temp;Humidity;BMP_temperature;BMP_pressure;BME280_temperature;BME280_humidity;BME280_pressure;Samples;Min_cycle;Max_cycle;Signal;HPM_P1;HPM_P2
2022/09/10 00:01:11;;;;;;;3.40;1.90;;;16.60;83.40;;;;;;5036652;28;20466;-73
2022/09/10 00:03:36;;;;;;;5.40;2.20;;;16.70;83.00;;;;;;5038523;28;20425;-74
2022/09/10 00:06:03;;;;;;;4.63;2.27;;;16.80;82.00;;;;;;5038768;28;20441;-74
2022/09/10 00:08:30;;;;;;;5.28;2.20;;;16.70;82.60;;;;;;5037646;28;20395;-74
2022/09/10 00:10:56;;;;;;;8.83;2.30;;;16.80;83.90;;;;;;5034979;28;20896;-74
2022/09/10 00:13:22;;;;;;;5.88;2.67;;;16.80;83.70;;;;;;5034208;28;20405;-73
2022/09/10 00:15:51;;;;;;;5.57;2.20;;;16.80;84.40;;;;;;5034103;28;20897;-74
2022/09/10 00:18:20;;;;;;;4.78;2.45;;;16.80;83.20;;;;;;5033853;28;20383;-74
2022/09/10 00:20:48;;;;;;;5.18;2.40;;;17.00;80.50;;;;;;5032609;28;20395;-73
2022/09/10 00:23:14;;;;;;;5.03;2.10;;;17.10;78.40;;;;;;5033135;28;20399;-74
2022/09/10 00:25:41;;;;;;;3.85;1.90;;;17.10;75.10;;;;;;5034179;28;20410;-74
2022/09/10 00:28:07;;;;;;;3.38;1.92;;;17.00;75.60;;;;;;5034162;28;20382;-75
2022/09/10 00:30:44;;;;;;;11.70;2.20;;;17.10;74.70;;;;;;5034025;28;20888;-73
2022/09/10 00:33:09;;;;;;;3.95;2.20;;;17.00;76.60;;;;;;5033997;28;20414;-74
2022/09/10 00:35:36;;;;;;;4.25;2.17;;;17.00;78.10;;;;;;5033590;28;20483;-74
2022/09/10 00:38:02;;;;;;;5.27;1.63;;;17.00;76.10;;;;;;5042629;28;20882;-72
2022/09/10 00:40:28;;;;;;;8.00;2.20;;;17.10;73.60;;;;;;5045609;28;20387;-75
2022/09/10 00:42:54;;;;;;;7.00;2.47;;;17.00;76.50;;;;;;5041065;28;20390;-73
2022/09/10 00:45:23;;;;;;;3.63;2.20;;;17.00;76.40;;;;;;5034221;28;20386;-75
2022/09/10 00:47:50;;;;;;;6.00;2.10;;;16.90;76.60;;;;;;5034663;28;20760;-74
2022/09/10 00:50:23;;;;;;;5.88;1.98;;;16.90;77.50;;;;;;5036298;28;20378;-74
2022/09/10 00:52:51;;;;;;;7.80;2.10;;;17.00;75.20;;;;;;5040916;28;20399;-74
2022/09/10 00:55:17;;;;;;;3.80;1.58;;;16.90;76.00;;;;;;5039790;28;20390;-75
2022/09/10 00:57:46;;;;;;;7.80;2.10;;;17.00;76.70;;;;;;5039751;28;20481;-74
2022/09/10 01:00:13;;;;;;;6.57;2.85;;;16.90;76.60;;;;;;5038344;28;20384;-75
2022/09/10 01:02:38;;;;;;;4.53;2.17;;;16.90;77.00;;;;;;5038757;28;20406;-75
2022/09/10 01:05:06;;;;;;;3.88;1.90;;;16.90;76.80;;;;;;5036805;28;20867;-76
2022/09/10 01:07:32;;;;;;;4.22;2.00;;;16.90;75.90;;;;;;5033358;28;20399;-73
2022/09/10 01:10:01;;;;;;;4.63;2.17;;;17.00;75.40;;;;;;5033133;28;20391;-74
2022/09/10 01:12:26;;;;;;;3.87;2.00;;;17.00;74.60;;;;;;5032336;28;20391;-74
2022/09/10 01:14:54;;;;;;;2.90;1.70;;;17.00;75.40;;;;;;5031276;28;20482;-73
2022/09/10 01:17:24;;;;;;;6.67;2.30;;;17.00;76.10;;;;;;5032935;28;20409;-74
2022/09/10 01:19:52;;;;;;;3.35;1.40;;;17.00;76.50;;;;;;5033021;28;20751;-74
2022/09/10 01:22:41;;;;;;;3.55;2.08;;;17.00;77.10;;;;;;5032483;28;20898;-74
2022/09/10 01:25:13;;;;;;;6.93;1.90;;;17.00;77.60;;;;;;5032347;28;20470;-74
2022/09/10 01:27:48;;;;;;;3.97;1.80;;;17.10;79.10;;;;;;5031753;28;20383;-74
2022/09/10 01:30:19;;;;;;;4.72;1.90;;;17.00;80.60;;;;;;5031801;28;20462;-74
2022/09/10 01:33:22;;;;;;;3.38;1.85;;;17.00;81.40;;;;;;5031747;28;20383;-75
2022/09/10 01:35:58;;;;;;;3.95;1.90;;;17.00;83.30;;;;;;5031892;28;20426;-74
2022/09/10 01:38:31;;;;;;;4.53;1.92;;;16.90;85.40;;;;;;5032074;28;20394;-74
2022/09/10 01:40:58;;;;;;;4.07;2.55;;;16.80;85.10;;;;;;5032839;28;20394;-72
2022/09/10 01:43:24;;;;;;;5.03;1.80;;;16.80;86.80;;;;;;5031391;28;20834;-73
2022/09/10 01:46:03;;;;;;;4.10;1.90;;;16.80;87.00;;;;;;5031142;28;20403;-73
2022/09/10 01:48:50;;;;;;;6.00;2.33;;;16.80;86.90;;;;;;5031017;28;20418;-73
2022/09/10 01:51:43;;;;;;;7.20;1.83;;;16.80;89.60;;;;;;5030715;28;20391;-73
2022/09/10 01:54:25;;;;;;;4.97;1.90;;;16.80;87.40;;;;;;5031215;28;20379;-74
2022/09/10 01:57:08;;;;;;;4.97;2.10;;;16.90;87.00;;;;;;5030967;28;20391;-73
2022/09/10 01:59:42;;;;;;;3.85;2.20;;;16.90;87.00;;;;;;5030795;28;20905;-72
2022/09/10 02:02:32;;;;;;;3.28;2.00;;;16.90;86.80;;;;;;5033665;28;20482;-75
2022/09/10 02:05:01;;;;;;;5.20;1.95;;;16.90;87.00;;;;;;5036649;28;20668;-72
2022/09/10 02:07:28;;;;;;;8.68;2.40;;;17.00;86.70;;;;;;5034279;28;20410;-73
2022/09/10 02:09:54;;;;;;;6.45;2.35;;;17.00;85.50;;;;;;5032474;28;20383;-73
2022/09/10 02:12:21;;;;;;;6.57;2.17;;;16.90;86.20;;;;;;5032747;28;20379;-73
2022/09/10 02:14:53;;;;;;;6.78;2.40;;;16.90;86.50;;;;;;5036152;28;20386;-73
2022/09/10 02:17:20;;;;;;;4.53;2.28;;;16.90;86.70;;;;;;5037040;28;20922;-72
2022/09/10 02:19:50;;;;;;;6.67;2.40;;;16.90;86.50;;;;;;5036149;28;20445;-73
2022/09/10 02:22:16;;;;;;;4.25;2.58;;;17.10;83.80;;;;;;5031492;28;20444;-73
2022/09/10 02:24:44;;;;;;;4.63;2.00;;;17.00;84.60;;;;;;5031726;28;20474;-72
2022/09/10 02:27:11;;;;;;;4.68;2.50;;;17.00;83.70;;;;;;5031029;28;20446;-72
2022/09/10 02:29:38;;;;;;;6.15;2.45;;;17.00;84.40;;;;;;5030883;28;20388;-72
2022/09/10 02:32:05;;;;;;;5.15;2.30;;;17.00;85.30;;;;;;5030091;28;20424;-73
2022/09/10 02:34:31;;;;;;;4.95;2.40;;;16.90;86.70;;;;;;5030352;28;20440;-72
2022/09/10 02:36:57;;;;;;;4.28;2.30;;;16.90;87.60;;;;;;5030237;28;20460;-72
2022/09/10 02:39:23;;;;;;;10.90;2.47;;;16.90;86.40;;;;;;5031141;28;20437;-72
2022/09/10 02:41:49;;;;;;;5.35;2.60;;;16.90;86.00;;;;;;5030909;28;20402;-74
2022/09/10 02:44:15;;;;;;;9.00;2.70;;;17.00;85.70;;;;;;5030663;28;20899;-73
2022/09/10 02:46:40;;;;;;;5.50;2.50;;;17.10;85.70;;;;;;5030729;28;20454;-73
2022/09/10 02:49:06;;;;;;;6.20;2.50;;;17.10;84.70;;;;;;5030515;28;20384;-72
2022/09/10 02:51:32;;;;;;;5.83;2.10;;;17.10;82.60;;;;;;5030177;28;20791;-73
2022/09/10 02:53:57;;;;;;;5.82;2.13;;;17.10;84.70;;;;;;5030748;28;20394;-73
2022/09/10 02:56:23;;;;;;;8.98;2.70;;;17.20;81.90;;;;;;5030579;28;20449;-71
2022/09/10 02:58:49;;;;;;;6.03;2.45;;;17.10;83.00;;;;;;5030352;28;20908;-72
2022/09/10 03:01:17;;;;;;;6.53;2.42;;;17.00;84.40;;;;;;5029930;28;20476;-73
2022/09/10 03:03:48;;;;;;;7.63;2.30;;;17.00;85.90;;;;;;5028888;28;20475;-72
2022/09/10 03:06:13;;;;;;;4.00;2.30;;;17.00;86.20;;;;;;5028843;28;20473;-72
2022/09/10 03:08:39;;;;;;;6.43;2.60;;;16.90;88.10;;;;;;5030241;28;20386;-73
2022/09/10 03:11:05;;;;;;;6.07;2.80;;;16.90;88.50;;;;;;5030199;28;20379;-72
2022/09/10 03:13:32;;;;;;;10.63;2.80;;;16.90;90.20;;;;;;5030153;28;20391;-72
2022/09/10 03:15:58;;;;;;;4.63;2.63;;;16.90;89.80;;;;;;5030328;28;20430;-72
2022/09/10 03:18:24;;;;;;;5.72;2.50;;;16.90;89.20;;;;;;5030560;28;20386;-73
2022/09/10 03:20:50;;;;;;;8.98;2.60;;;16.90;90.20;;;;;;5030065;28;20386;-73
2022/09/10 03:23:17;;;;;;;6.05;2.40;;;17.00;87.50;;;;;;5029080;28;20384;-74
2022/09/10 03:25:43;;;;;;;6.57;2.70;;;17.00;86.10;;;;;;5030110;28;20419;-73
2022/09/10 03:28:09;;;;;;;9.57;2.90;;;17.00;86.00;;;;;;5033881;28;20541;-73
2022/09/10 03:30:36;;;;;;;8.23;2.80;;;17.10;86.40;;;;;;5039186;28;21074;-72
2022/09/10 03:33:02;;;;;;;12.77;2.95;;;17.10;86.10;;;;;;5039320;28;20382;-73
2022/09/10 03:35:28;;;;;;;12.85;3.10;;;17.00;85.10;;;;;;5039824;28;20391;-72
2022/09/10 03:37:54;;;;;;;6.97;2.90;;;17.00;84.90;;;;;;5036815;28;20502;-72
2022/09/10 03:40:19;;;;;;;6.30;3.20;;;17.00;85.80;;;;;;5033520;28;20391;-73
2022/09/10 03:42:45;;;;;;;8.50;3.50;;;17.00;87.20;;;;;;5033210;28;20490;-73
2022/09/10 03:45:11;;;;;;;5.80;2.70;;;17.20;82.90;;;;;;5034376;28;20382;-73
2022/09/10 03:47:37;;;;;;;9.13;3.15;;;17.10;84.00;;;;;;5034022;28;20430;-74
2022/09/10 03:50:04;;;;;;;9.52;3.00;;;17.10;85.20;;;;;;5034448;28;20414;-74
2022/09/10 03:52:29;;;;;;;7.25;3.00;;;17.00;87.80;;;;;;5045706;23;20435;-71
2022/09/10 03:54:55;;;;;;;10.93;2.78;;;17.10;85.90;;;;;;5035012;28;20421;-71
2022/09/10 03:57:22;;;;;;;9.27;3.20;;;17.10;85.80;;;;;;5034705;28;20463;-70
2022/09/10 03:59:48;;;;;;;10.60;3.22;;;17.10;88.00;;;;;;5033905;28;20464;-70
2022/09/10 04:02:14;;;;;;;10.32;3.30;;;17.00;87.70;;;;;;5023250;28;20392;-70
2022/09/10 04:04:40;;;;;;;9.17;3.07;;;17.00;88.00;;;;;;5014326;28;20393;-71
2022/09/10 04:07:07;;;;;;;8.13;3.10;;;16.90;89.10;;;;;;5013977;28;20400;-69
2022/09/10 04:09:32;;;;;;;10.77;3.38;;;17.00;84.50;;;;;;5014342;28;20761;-69
2022/09/10 04:11:59;;;;;;;9.02;2.72;;;17.00;85.90;;;;;;5013516;28;20391;-70
2022/09/10 04:14:25;;;;;;;7.82;3.40;;;17.00;85.80;;;;;;5014013;28;20526;-70
2022/09/10 04:16:51;;;;;;;8.97;3.17;;;17.00;86.20;;;;;;5013975;28;20412;-71
2022/09/10 04:19:17;;;;;;;12.47;3.90;;;17.10;84.80;;;;;;5014038;28;20700;-71
2022/09/10 04:21:43;;;;;;;8.13;3.80;;;17.10;82.90;;;;;;5013672;28;20483;-71
2022/09/10 04:24:11;;;;;;;7.40;3.20;;;17.10;84.00;;;;;;5014016;28;20389;-71
2022/09/10 04:26:37;;;;;;;5.20;3.40;;;17.00;85.10;;;;;;5013998;28;20404;-70
2022/09/10 04:29:02;;;;;;;10.18;3.25;;;17.00;86.70;;;;;;5014063;28;20389;-69
2022/09/10 04:31:28;;;;;;;8.83;3.30;;;17.00;86.40;;;;;;5013693;28;20392;-70
2022/09/10 04:33:53;;;;;;;11.50;3.60;;;17.00;88.00;;;;;;5014357;28;20490;-72
2022/09/10 04:36:19;;;;;;;8.63;3.90;;;16.90;86.40;;;;;;5015003;28;20423;-72
2022/09/10 04:38:45;;;;;;;8.15;3.45;;;16.90;87.70;;;;;;5013531;28;20389;-71
2022/09/10 04:41:11;;;;;;;10.30;3.53;;;16.90;88.50;;;;;;5014680;28;20381;-72
2022/09/10 04:43:37;;;;;;;9.80;3.60;;;16.90;86.90;;;;;;5014624;28;20428;-71
2022/09/10 04:46:03;;;;;;;8.02;4.03;;;17.00;87.30;;;;;;5014266;28;20491;-71
2022/09/10 04:48:28;;;;;;;14.05;5.95;;;17.00;87.60;;;;;;5013588;28;20475;-71
2022/09/10 04:50:54;;;;;;;11.73;5.87;;;17.00;87.40;;;;;;5011921;28;20389;-72
2022/09/10 04:53:20;;;;;;;12.80;4.17;;;17.00;88.00;;;;;;5014296;28;20392;-71
2022/09/10 04:55:48;;;;;;;14.80;8.18;;;16.90;90.20;;;;;;5013495;28;20528;-70
2022/09/10 04:58:13;;;;;;;11.25;6.63;;;16.80;91.90;;;;;;5013037;28;20832;-69
2022/09/10 05:00:39;;;;;;;15.80;6.60;;;16.80;93.00;;;;;;5013409;28;20425;-71
2022/09/10 05:03:06;;;;;;;15.75;8.43;;;16.80;93.40;;;;;;5013779;28;20410;-71
2022/09/10 05:05:32;;;;;;;17.35;5.85;;;16.80;94.00;;;;;;5015492;28;20472;-72
2022/09/10 05:07:59;;;;;;;13.85;5.85;;;16.90;92.80;;;;;;5026003;28;20439;-70
2022/09/10 05:10:26;;;;;;;26.17;16.38;;;16.90;93.10;;;;;;5016800;28;20476;-70
2022/09/10 05:12:52;;;;;;;14.82;8.65;;;16.80;97.70;;;;;;5012157;28;20413;-70
2022/09/10 05:15:17;;;;;;;26.67;15.30;;;16.80;97.20;;;;;;5012569;28;20401;-69
2022/09/10 05:17:43;;;;;;;29.23;19.37;;;16.70;99.70;;;;;;5012974;28;20385;-72
2022/09/10 05:20:09;;;;;;;15.10;5.50;;;16.70;99.90;;;;;;5012746;28;20406;-71
2022/09/10 05:22:35;;;;;;;25.77;15.40;;;16.70;99.90;;;;;;5013345;28;20403;-71
2022/09/10 05:25:02;;;;;;;39.47;25.47;;;16.60;99.90;;;;;;5013601;28;20389;-70
2022/09/10 05:27:27;;;;;;;18.73;12.10;;;16.60;99.90;;;;;;5012316;28;20405;-71
2022/09/10 05:29:53;;;;;;;19.20;12.23;;;16.70;99.90;;;;;;5012312;28;20393;-72
2022/09/10 05:32:18;;;;;;;33.85;21.58;;;16.70;99.90;;;;;;5011736;28;20769;-71
2022/09/10 05:34:47;;;;;;;21.52;13.00;;;16.70;99.90;;;;;;5012249;28;20392;-70
2022/09/10 05:37:17;;;;;;;13.07;6.60;;;16.60;99.90;;;;;;5012326;28;20388;-70
2022/09/10 05:39:43;;;;;;;11.30;5.93;;;16.60;99.90;;;;;;5011100;28;20405;-70
2022/09/10 05:42:09;;;;;;;10.80;7.20;;;16.70;99.90;;;;;;5012260;28;20908;-71
2022/09/10 05:44:34;;;;;;;22.67;11.50;;;16.70;99.90;;;;;;5012138;28;20396;-71
2022/09/10 05:47:00;;;;;;;19.30;8.30;;;16.70;99.90;;;;;;5009310;28;20423;-71
2022/09/10 05:49:26;;;;;;;24.73;14.05;;;16.70;99.90;;;;;;5011148;28;20959;-72
2022/09/10 05:51:51;;;;;;;21.80;15.23;;;16.60;99.90;;;;;;5011822;28;20408;-71
2022/09/10 05:54:17;;;;;;;19.50;12.57;;;16.60;99.90;;;;;;5012702;28;20428;-72
2022/09/10 05:56:42;;;;;;;15.50;8.47;;;16.60;99.90;;;;;;5012204;28;20381;-71
2022/09/10 05:59:09;;;;;;;9.50;5.43;;;16.70;99.90;;;;;;5012370;28;20419;-78
2022/09/10 06:01:35;;;;;;;23.75;13.60;;;16.70;99.90;;;;;;5011149;28;20479;-70
2022/09/10 06:04:01;;;;;;;16.85;7.30;;;16.70;99.90;;;;;;5012124;28;20447;-71
2022/09/10 06:06:27;;;;;;;17.02;11.65;;;16.80;99.90;;;;;;5010893;28;20435;-70
2022/09/10 06:08:54;;;;;;;21.88;13.68;;;16.80;99.90;;;;;;5011340;28;20502;-72
2022/09/10 06:11:20;;;;;;;23.70;13.55;;;16.80;99.90;;;;;;5010997;28;20428;-69
2022/09/10 06:13:46;;;;;;;13.95;6.93;;;16.80;99.90;;;;;;5008822;28;20408;-69
2022/09/10 06:16:12;;;;;;;20.58;11.77;;;16.80;99.90;;;;;;5009394;28;20778;-70
2022/09/10 06:18:38;;;;;;;15.88;7.88;;;16.80;99.90;;;;;;5009441;28;20396;-71
2022/09/10 06:21:07;;;;;;;17.80;8.20;;;16.90;99.90;;;;;;5009432;28;20488;-72
2022/09/10 06:23:34;;;;;;;15.57;6.38;;;16.90;99.90;;;;;;5009687;28;20405;-69
2022/09/10 06:26:07;;;;;;;12.27;6.75;;;16.90;99.90;;;;;;5008973;28;20432;-70
2022/09/10 06:28:33;;;;;;;14.18;9.00;;;16.90;99.90;;;;;;5009017;28;20628;-71
2022/09/10 06:30:59;;;;;;;13.13;7.55;;;16.90;99.90;;;;;;5007300;28;20393;-71
2022/09/10 06:33:24;;;;;;;13.45;8.95;;;16.90;99.90;;;;;;5024879;28;20428;-71
2022/09/10 06:35:54;;;;;;;13.47;5.90;;;16.90;99.90;;;;;;5008606;28;20428;-70
2022/09/10 06:38:20;;;;;;;19.92;6.20;;;17.00;99.90;;;;;;5010545;28;20404;-71
2022/09/10 06:40:59;;;;;;;18.60;9.25;;;17.00;99.90;;;;;;5025243;28;20393;-73
2022/09/10 06:43:25;;;;;;;13.15;6.50;;;16.90;99.90;;;;;;5010392;28;20472;-73
2022/09/10 06:45:52;;;;;;;15.23;9.13;;;17.00;99.90;;;;;;5009798;28;20416;-71
2022/09/10 06:48:26;;;;;;;16.30;8.65;;;16.90;99.90;;;;;;5009504;28;20403;-71
2022/09/10 06:50:56;;;;;;;17.73;9.15;;;16.90;99.90;;;;;;5009399;28;20400;-72
2022/09/10 06:53:23;;;;;;;18.15;10.77;;;16.80;99.90;;;;;;5009079;28;20908;-71
2022/09/10 06:55:52;;;;;;;16.98;8.05;;;16.80;99.90;;;;;;5008811;28;20408;-71
2022/09/10 06:58:20;;;;;;;14.43;7.93;;;16.90;99.90;;;;;;5009240;28;20409;-72
2022/09/10 07:00:46;;;;;;;11.60;7.50;;;16.90;99.90;;;;;;5008794;28;20397;-72
2022/09/10 07:03:16;;;;;;;16.38;8.30;;;17.00;99.90;;;;;;5008917;28;20393;-71
2022/09/10 07:05:44;;;;;;;16.73;7.78;;;17.10;99.90;;;;;;5008494;28;20413;-71
2022/09/10 07:08:11;;;;;;;16.55;8.07;;;17.10;99.90;;;;;;5008081;28;20403;-72
2022/09/10 07:10:37;;;;;;;13.45;7.38;;;17.20;99.90;;;;;;5008430;28;20411;-72
2022/09/10 07:13:03;;;;;;;13.82;9.20;;;17.20;99.90;;;;;;5008382;28;20450;-72
2022/09/10 07:15:29;;;;;;;14.65;8.70;;;17.20;99.90;;;;;;5008664;28;20389;-71
2022/09/10 07:17:55;;;;;;;14.43;9.15;;;17.20;99.90;;;;;;5009375;28;20763;-71
2022/09/10 07:20:25;;;;;;;19.38;9.23;;;17.20;99.90;;;;;;5008646;28;20393;-72
2022/09/10 07:22:54;;;;;;;18.65;9.00;;;17.10;99.90;;;;;;5008075;28;20447;-70
2022/09/10 07:25:20;;;;;;;19.55;7.15;;;17.10;99.90;;;;;;5008133;28;20389;-73
2022/09/10 07:27:46;;;;;;;11.90;7.38;;;17.10;99.90;;;;;;5008250;28;20405;-72
2022/09/10 07:30:12;;;;;;;15.32;8.60;;;17.10;99.90;;;;;;5006598;28;20391;-72
2022/09/10 07:32:39;;;;;;;18.58;8.50;;;17.10;99.90;;;;;;5008183;28;20397;-71
2022/09/10 07:35:06;;;;;;;14.20;7.90;;;17.10;99.90;;;;;;5008585;28;20403;-72
2022/09/10 07:37:32;;;;;;;15.20;8.90;;;17.10;99.90;;;;;;5008008;28;20400;-72
2022/09/10 07:39:58;;;;;;;23.23;14.95;;;17.10;99.90;;;;;;5008449;28;20940;-70
2022/09/10 07:42:24;;;;;;;22.88;12.70;;;17.20;99.90;;;;;;5008678;28;20420;-71
2022/09/10 07:44:50;;;;;;;27.25;15.30;;;17.30;99.90;;;;;;5008560;28;20532;-71
2022/09/10 07:47:15;;;;;;;15.98;7.93;;;17.30;99.90;;;;;;5011488;28;20404;-72
2022/09/10 07:49:43;;;;;;;15.60;9.17;;;17.40;99.90;;;;;;5013430;28;20396;-71
2022/09/10 07:52:10;;;;;;;25.85;16.13;;;17.60;99.90;;;;;;5009077;28;20492;-70
2022/09/10 07:54:36;;;;;;;15.47;9.60;;;17.80;99.90;;;;;;5009551;28;20431;-70
2022/09/10 07:57:02;;;;;;;15.50;9.87;;;17.90;99.90;;;;;;5009177;28;20432;-72
2022/09/10 07:59:27;;;;;;;15.67;8.50;;;18.00;99.90;;;;;;5008814;28;20401;-71
2022/09/10 08:01:53;;;;;;;22.27;9.07;;;18.10;97.60;;;;;;5008456;28;20419;-72
2022/09/10 08:04:19;;;;;;;16.00;9.25;;;18.10;95.50;;;;;;5008821;28;20471;-72
2022/09/10 08:06:45;;;;;;;14.83;8.10;;;18.10;94.20;;;;;;5008601;28;20492;-72
2022/09/10 08:09:13;;;;;;;19.02;12.25;;;18.10;95.20;;;;;;5008877;28;20397;-70
2022/09/10 08:11:39;;;;;;;19.27;10.47;;;18.30;96.70;;;;;;5009827;28;20542;-71
2022/09/10 08:14:05;;;;;;;17.55;9.88;;;18.30;92.90;;;;;;5012202;28;20389;-72
2022/09/10 08:16:32;;;;;;;16.85;9.77;;;18.40;92.50;;;;;;5012323;28;20401;-70
2022/09/10 08:18:59;;;;;;;15.93;10.45;;;18.70;91.60;;;;;;5012412;28;20393;-71
2022/09/10 08:21:24;;;;;;;14.48;8.45;;;19.00;90.40;;;;;;5013565;28;20820;-72
2022/09/10 08:23:55;;;;;;;10.83;6.80;;;19.30;85.20;;;;;;5013228;28;20404;-74
2022/09/10 08:26:23;;;;;;;13.75;8.50;;;19.50;81.10;;;;;;5026449;28;20492;-73
2022/09/10 08:28:54;;;;;;;9.48;5.30;;;19.50;79.20;;;;;;5012599;28;20423;-72
2022/09/10 08:31:20;;;;;;;15.20;7.00;;;19.60;77.60;;;;;;5009545;28;20395;-71
2022/09/10 08:33:52;;;;;;;13.05;7.25;;;19.60;78.80;;;;;;5012541;28;20493;-72
2022/09/10 08:36:18;;;;;;;20.48;11.48;;;19.40;78.20;;;;;;5011964;28;20809;-73
2022/09/10 08:38:44;;;;;;;16.50;8.55;;;19.30;80.30;;;;;;5013577;28;20481;-73
2022/09/10 08:41:37;;;;;;;18.83;13.05;;;19.30;82.30;;;;;;5012608;28;20757;-73
2022/09/10 08:44:02;;;;;;;17.07;9.33;;;19.30;82.60;;;;;;5006277;28;20427;-74
2022/09/10 08:46:33;;;;;;;16.30;8.80;;;19.30;80.30;;;;;;5012337;28;20408;-72
2022/09/10 08:49:34;;;;;;;23.17;12.30;;;19.30;81.70;;;;;;5013766;28;20866;-73
2022/09/10 08:52:05;;;;;;;18.65;11.02;;;19.30;83.60;;;;;;5011754;28;20412;-72
2022/09/10 08:54:46;;;;;;;22.53;13.23;;;19.30;82.90;;;;;;5013687;28;20389;-73
2022/09/10 08:57:25;;;;;;;18.75;11.40;;;19.30;80.10;;;;;;5014777;28;20912;-72
2022/09/10 08:59:54;;;;;;;18.15;9.82;;;19.30;81.10;;;;;;5012870;28;20396;-72
2022/09/10 09:02:38;;;;;;;16.00;11.00;;;19.10;83.40;;;;;;5012470;28;20396;-68
2022/09/10 09:05:16;;;;;;;19.70;10.63;;;19.00;85.60;;;;;;5012839;28;20404;-72
2022/09/10 09:07:42;;;;;;;16.95;10.20;;;18.70;87.40;;;;;;5011018;28;20412;-71
2022/09/10 09:10:45;;;;;;;22.50;13.32;;;18.60;89.60;;;;;;5011666;28;20411;-70
2022/09/10 09:13:38;;;;;;;17.60;10.85;;;18.40;93.00;;;;;;5011286;28;20459;-71
2022/09/10 09:16:28;;;;;;;21.02;11.25;;;18.40;93.80;;;;;;5011797;28;20393;-71
2022/09/10 09:19:08;;;;;;;29.07;18.43;;;18.20;96.70;;;;;;5012210;28;20476;-71
2022/09/10 09:21:50;;;;;;;34.50;22.58;;;18.00;99.90;;;;;;5011650;28;20389;-72
2022/09/10 09:24:28;;;;;;;29.25;14.95;;;17.90;99.90;;;;;;5013071;28;20475;-73
2022/09/10 09:27:01;;;;;;;18.92;12.70;;;17.80;99.90;;;;;;5012174;28;20412;-72
2022/09/10 09:29:42;;;;;;;20.80;11.97;;;17.70;99.90;;;;;;5011653;28;20383;-71
2022/09/10 09:32:12;;;;;;;22.60;13.38;;;17.70;99.90;;;;;;5007685;28;20439;-79
2022/09/10 09:34:44;;;;;;;24.55;16.38;;;17.60;99.90;;;;;;5027289;28;20473;-72
2022/09/10 09:37:16;;;;;;;23.70;15.50;;;17.60;99.90;;;;;;5011008;28;20794;-71
2022/09/10 09:39:46;;;;;;;23.90;15.60;;;17.60;99.90;;;;;;5009572;28;20487;-71
2022/09/10 09:42:46;;;;;;;18.67;12.85;;;17.70;99.90;;;;;;5010360;28;20401;-73
2022/09/10 09:45:33;;;;;;;23.33;14.40;;;17.70;99.90;;;;;;4975144;28;20524;-72
2022/09/10 09:47:59;;;;;;;42.50;30.63;;;18.00;99.90;;;;;;4991864;28;20391;-75
2022/09/10 09:50:25;;;;;;;20.40;12.35;;;18.30;97.60;;;;;;5004012;28;20408;-72
2022/09/10 09:52:55;;;;;;;17.70;10.00;;;18.50;96.50;;;;;;5033231;23;20438;-73
2022/09/10 09:55:32;;;;;;;21.90;13.52;;;18.60;90.30;;;;;;5029220;28;20473;-73
2022/09/10 09:58:19;;;;;;;18.85;14.70;;;18.50;91.80;;;;;;5029524;28;20386;-74
2022/09/10 10:00:52;;;;;;;34.45;24.20;;;18.30;94.80;;;;;;5029470;28;20398;-73
2022/09/10 10:03:25;;;;;;;19.42;13.23;;;18.30;95.90;;;;;;5029279;28;20394;-73
2022/09/10 10:06:08;;;;;;;22.20;15.35;;;18.20;96.10;;;;;;5029390;28;20947;-72
2022/09/10 10:08:39;;;;;;;40.72;29.35;;;18.10;97.40;;;;;;5029772;28;20421;-73
2022/09/10 10:11:06;;;;;;;25.08;16.02;;;18.00;99.00;;;;;;5029034;28;20410;-73
2022/09/10 10:13:43;;;;;;;21.77;13.10;;;18.00;98.50;;;;;;5012432;28;20389;-72
2022/09/10 10:16:20;;;;;;;23.97;14.40;;;18.00;97.50;;;;;;5021895;28;20872;-72
2022/09/10 10:18:47;;;;;;;23.38;16.48;;;17.80;99.90;;;;;;5030579;28;20835;-76
2022/09/10 10:21:18;;;;;;;24.73;18.63;;;17.80;99.90;;;;;;5031077;28;20391;-77
2022/09/10 10:23:44;;;;;;;20.77;13.80;;;17.70;99.90;;;;;;5012628;28;20410;-76
2022/09/10 10:26:16;;;;;;;20.57;14.50;;;17.80;99.90;;;;;;5030344;28;20402;-74
2022/09/10 10:28:47;;;;;;;54.03;37.08;;;17.70;99.90;;;;;;5031290;28;20455;-73
2022/09/10 10:31:13;;;;;;;20.70;12.65;;;17.70;99.90;;;;;;5039799;28;20391;-74
2022/09/10 10:33:51;;;;;;;26.75;19.17;;;17.60;99.90;;;;;;5040181;28;20387;-72
2022/09/10 10:36:38;;;;;;;31.83;23.05;;;17.70;99.90;;;;;;5040040;28;20410;-74
2022/09/10 10:39:18;;;;;;;21.83;13.73;;;17.60;99.90;;;;;;5034663;28;20504;-73
2022/09/10 10:41:57;;;;;;;24.42;17.10;;;17.60;99.90;;;;;;5030868;28;20413;-73
2022/09/10 10:44:51;;;;;;;28.35;16.35;;;17.60;99.90;;;;;;5035086;28;20478;-74
2022/09/10 10:47:48;;;;;;;23.27;16.33;;;17.60;99.90;;;;;;5039046;28;20465;-73
2022/09/10 10:50:21;;;;;;;44.05;30.45;;;17.60;99.90;;;;;;5010634;28;20404;-75
2022/09/10 10:52:55;;;;;;;32.65;21.38;;;17.60;99.90;;;;;;5020905;28;20419;-73
2022/09/10 10:55:26;;;;;;;26.25;15.98;;;17.70;99.90;;;;;;5010171;28;20668;-72
2022/09/10 10:58:29;;;;;;;44.85;32.13;;;17.70;99.90;;;;;;5011398;28;20389;-73
2022/09/10 11:01:02;;;;;;;27.27;20.47;;;17.70;99.90;;;;;;5011022;28;20844;-73
2022/09/10 11:03:47;;;;;;;25.33;18.15;;;17.70;99.90;;;;;;5029488;28;20395;-73
2022/09/10 11:06:19;;;;;;;21.60;15.55;;;17.90;99.90;;;;;;5031130;28;20486;-74
2022/09/10 11:08:54;;;;;;;19.25;12.95;;;18.20;97.00;;;;;;5031344;28;20721;-73
2022/09/10 11:11:30;;;;;;;17.17;12.00;;;18.40;91.70;;;;;;5030897;28;20375;-73
2022/09/10 11:14:18;;;;;;;16.48;11.02;;;18.40;91.00;;;;;;5030842;28;20371;-73
2022/09/10 11:16:57;;;;;;;19.95;12.40;;;18.20;91.90;;;;;;5013219;28;20403;-73
2022/09/10 11:19:34;;;;;;;20.13;14.13;;;18.20;95.10;;;;;;5030863;28;20449;-73
2022/09/10 11:22:21;;;;;;;28.27;18.33;;;18.10;94.90;;;;;;5029507;28;20452;-75
2022/09/10 11:25:16;;;;;;;24.20;15.15;;;18.10;98.80;;;;;;5031046;28;20418;-73
2022/09/10 11:27:57;;;;;;;23.77;14.95;;;18.20;99.30;;;;;;5032236;28;20477;-73
2022/09/10 11:30:22;;;;;;;26.60;17.52;;;18.30;99.10;;;;;;5029444;28;20395;-71
2022/09/10 11:33:22;;;;;;;21.87;16.63;;;18.30;99.90;;;;;;5030556;28;20437;-75
2022/09/10 11:36:02;;;;;;;20.40;14.52;;;18.30;99.80;;;;;;5028674;28;20398;-73
2022/09/10 11:39:00;;;;;;;23.20;16.65;;;18.40;96.40;;;;;;5043815;28;20387;-73
2022/09/10 11:41:31;;;;;;;21.70;13.82;;;18.60;93.70;;;;;;5039374;28;20932;-75
2022/09/10 11:44:16;;;;;;;28.73;16.65;;;19.00;89.80;;;;;;5039321;28;20483;-74
2022/09/10 11:47:07;;;;;;;21.10;14.45;;;19.40;83.80;;;;;;5033982;28;20411;-74
2022/09/10 11:49:51;;;;;;;24.90;15.80;;;19.50;81.80;;;;;;5034446;28;20928;-73
2022/09/10 11:52:18;;;;;;;18.42;13.40;;;19.60;81.40;;;;;;5033996;28;20468;-74
2022/09/10 11:54:46;;;;;;;22.13;16.73;;;19.60;75.00;;;;;;5035422;28;20791;-74
2022/09/10 11:57:33;;;;;;;21.00;15.27;;;19.60;76.10;;;;;;5030035;28;20392;-74
2022/09/10 12:00:15;;;;;;;19.63;14.00;;;19.70;77.40;;;;;;5043678;28;20415;-73
2022/09/10 12:03:08;;;;;;;44.45;32.53;;;19.80;80.60;;;;;;5025774;28;20396;-75
2022/09/10 12:05:55;;;;;;;21.15;15.30;;;19.90;76.30;;;;;;5032785;28;20402;-74
2022/09/10 12:08:40;;;;;;;21.45;16.02;;;19.90;70.60;;;;;;5034102;28;20804;-76
2022/09/10 12:11:12;;;;;;;19.20;14.02;;;20.10;72.20;;;;;;5024124;28;20396;-75
2022/09/10 12:13:38;;;;;;;45.55;36.53;;;20.20;71.00;;;;;;5013941;28;20392;-73
2022/09/10 12:16:35;;;;;;;21.27;16.27;;;20.20;69.90;;;;;;5013148;28;20885;-74
2022/09/10 12:19:06;;;;;;;21.13;14.45;;;20.30;66.30;;;;;;5013878;28;20479;-73
2022/09/10 12:21:40;;;;;;;16.17;12.10;;;20.50;64.80;;;;;;5012949;28;20393;-73
2022/09/10 12:24:26;;;;;;;60.60;44.33;;;20.30;61.80;;;;;;4995276;28;20384;-75
2022/09/10 12:26:53;;;;;;;23.63;16.02;;;20.40;65.90;;;;;;5013756;28;20828;-74
2022/09/10 12:29:30;;;;;;;18.95;13.07;;;20.50;68.60;;;;;;5013252;28;20389;-74
2022/09/10 12:32:11;;;;;;;19.05;13.27;;;20.70;63.40;;;;;;5013185;28;20870;-75
2022/09/10 12:34:37;;;;;;;18.48;13.13;;;20.70;59.50;;;;;;5013339;28;20808;-75
2022/09/10 12:37:03;;;;;;;17.70;12.60;;;20.80;59.70;;;;;;5012869;28;20389;-74
2022/09/10 12:39:29;;;;;;;17.70;13.43;;;20.90;59.30;;;;;;4995883;28;20395;-74
2022/09/10 12:42:22;;;;;;;17.50;13.10;;;21.10;59.20;;;;;;5013748;28;20385;-74
2022/09/10 12:44:48;;;;;;;18.27;14.33;;;21.20;56.30;;;;;;5013514;28;20712;-75
2022/09/10 12:47:26;;;;;;;18.70;14.93;;;21.10;60.10;;;;;;5013400;28;20459;-74
2022/09/10 12:50:03;;;;;;;26.05;17.73;;;20.70;63.30;;;;;;5014479;28;20487;-73
2022/09/10 12:52:47;;;;;;;23.20;16.60;;;20.60;64.00;;;;;;5013656;28;20520;-75
2022/09/10 12:55:35;;;;;;;19.35;12.88;;;20.70;66.10;;;;;;5014633;28;20385;-75